createdAt,value
2018-07-12T00:00:53.888Z,93.22
2018-07-12T00:01:58.332Z,93.47
2018-07-12T00:03:02.810Z,94.44
2018-07-12T00:04:07.598Z,94.37
2018-07-12T00:05:12.555Z,96.12
2018-07-12T00:06:17.037Z,96.57
2018-07-12T00:07:21.239Z,97.41
2018-07-12T00:08:25.717Z,97.63
2018-07-12T00:09:30.199Z,97.54
2018-07-12T00:10:34.667Z,97.27
2018-07-12T00:11:39.111Z,97.27
2018-07-12T00:12:43.568Z,96.80
2018-07-12T00:13:48.008Z,96.06
2018-07-12T00:14:52.480Z,96.04
2018-07-12T00:15:56.908Z,95.74
2018-07-12T00:17:01.365Z,95.37
2018-07-12T00:18:05.858Z,94.98
2018-07-12T00:19:10.328Z,96.07
2018-07-12T00:20:14.819Z,95.75
2018-07-12T00:21:19.240Z,96.49
2018-07-12T00:22:23.728Z,96.49
2018-07-12T00:23:28.224Z,96.00
2018-07-12T00:24:32.730Z,97.18
2018-07-12T00:25:36.964Z,97.19
2018-07-12T00:26:41.479Z,95.82
2018-07-12T00:27:45.948Z,94.78
2018-07-12T00:28:50.400Z,94.80
2018-07-12T00:29:54.886Z,96.02
2018-07-12T00:30:59.353Z,95.98
2018-07-12T00:32:03.818Z,95.71
2018-07-12T00:33:08.312Z,95.75
2018-07-12T00:34:12.777Z,95.48
2018-07-12T00:35:17.813Z,95.64
2018-07-12T00:36:23.749Z,95.95
2018-07-12T00:37:28.284Z,95.97
2018-07-12T00:38:32.724Z,95.41
2018-07-12T00:39:37.209Z,95.26
2018-07-12T00:40:41.689Z,95.03
2018-07-12T00:41:46.144Z,95.21
2018-07-12T00:42:50.730Z,95.12
2018-07-12T00:43:55.172Z,94.84
2018-07-12T00:44:59.415Z,94.53
2018-07-12T00:46:03.918Z,94.50
2018-07-12T00:47:08.392Z,94.45
2018-07-12T00:48:12.848Z,93.91
2018-07-12T00:49:17.342Z,93.65
2018-07-12T00:50:21.814Z,92.66
2018-07-12T00:51:26.266Z,91.88
2018-07-12T00:52:30.741Z,91.10
2018-07-12T00:53:35.215Z,91.08
2018-07-12T00:54:39.705Z,90.93
2018-07-12T00:55:44.187Z,90.96
2018-07-12T00:56:48.635Z,91.10
2018-07-12T00:57:53.120Z,91.10
2018-07-12T00:58:57.588Z,90.73
2018-07-12T01:00:02.081Z,90.51
2018-07-12T01:01:06.555Z,90.53
2018-07-12T01:02:10.577Z,90.57
2018-07-12T01:03:15.382Z,90.54
2018-07-12T01:04:19.852Z,89.90
2018-07-12T01:05:25.214Z,89.25
2018-07-12T01:06:30.238Z,89.04
2018-07-12T01:07:35.237Z,89.32
2018-07-12T01:08:39.689Z,90.05
2018-07-12T01:09:44.155Z,90.57
2018-07-12T01:10:48.641Z,91.11
2018-07-12T01:11:53.117Z,90.85
2018-07-12T01:12:57.661Z,90.99
2018-07-12T01:14:02.201Z,90.96
2018-07-12T01:15:06.697Z,90.58
2018-07-12T01:16:11.169Z,90.75
2018-07-12T01:17:15.651Z,90.81
2018-07-12T01:18:20.135Z,89.97
2018-07-12T01:19:24.652Z,89.77
2018-07-12T01:20:29.140Z,89.43
2018-07-12T01:21:33.618Z,90.11
2018-07-12T01:22:38.065Z,89.86
2018-07-12T01:23:42.549Z,89.51
2018-07-12T01:24:47.041Z,90.05
2018-07-12T01:25:51.528Z,89.92
2018-07-12T01:26:55.973Z,90.50
2018-07-12T01:28:00.469Z,90.67
2018-07-12T01:29:04.932Z,91.50
2018-07-12T01:30:09.382Z,91.48
2018-07-12T01:31:13.845Z,91.38
2018-07-12T01:32:18.332Z,91.10
2018-07-12T01:33:22.827Z,90.32
2018-07-12T01:34:27.284Z,89.91
2018-07-12T01:35:31.772Z,90.36
2018-07-12T01:36:36.276Z,91.68
2018-07-12T01:37:41.264Z,92.15
2018-07-12T01:38:46.272Z,91.48
2018-07-12T01:39:50.696Z,91.42
2018-07-12T01:40:55.165Z,91.56
2018-07-12T01:41:59.644Z,92.50
2018-07-12T01:43:04.121Z,92.60
2018-07-12T01:44:08.574Z,91.65
2018-07-12T01:45:13.067Z,91.08
2018-07-12T01:46:17.545Z,91.13
2018-07-12T01:47:22.041Z,91.19
2018-07-12T01:48:26.493Z,91.54
2018-07-12T01:49:30.951Z,91.45
2018-07-12T01:50:35.412Z,91.38
2018-07-12T01:51:39.839Z,91.03
2018-07-12T01:52:44.277Z,90.92
2018-07-12T01:53:48.729Z,91.42
2018-07-12T01:54:53.216Z,92.21
2018-07-12T01:55:57.709Z,92.75
2018-07-12T01:57:02.159Z,92.95
2018-07-12T01:58:06.668Z,92.79
2018-07-12T01:59:11.106Z,92.61
2018-07-12T02:00:15.545Z,92.62
2018-07-12T02:01:20.008Z,93.09
2018-07-12T02:02:24.532Z,92.93
2018-07-12T02:03:28.950Z,93.20
2018-07-12T02:04:33.417Z,92.76
2018-07-12T02:05:37.894Z,92.16
2018-07-12T02:06:42.334Z,91.55
2018-07-12T02:07:46.757Z,91.54
2018-07-12T02:08:51.922Z,92.19
2018-07-12T02:09:56.930Z,92.71
2018-07-12T02:11:01.397Z,92.74
2018-07-12T02:12:05.853Z,94.16
2018-07-12T02:13:10.340Z,93.86
2018-07-12T02:14:14.785Z,94.71
2018-07-12T02:15:19.244Z,94.80
2018-07-12T02:16:23.726Z,93.86
2018-07-12T02:17:28.152Z,94.08
2018-07-12T02:18:32.601Z,94.06
2018-07-12T02:19:37.041Z,94.68
2018-07-12T02:20:41.487Z,95.29
2018-07-12T02:21:45.965Z,95.38
2018-07-12T02:22:50.440Z,96.03
2018-07-12T02:23:54.924Z,95.76
2018-07-12T02:24:59.384Z,96.03
2018-07-12T02:26:03.838Z,95.85
2018-07-12T02:27:08.283Z,95.36
2018-07-12T02:28:12.737Z,95.29
2018-07-12T02:29:17.180Z,95.84
2018-07-12T02:30:21.660Z,96.35
2018-07-12T02:31:26.144Z,96.98
2018-07-12T02:32:30.680Z,97.50
2018-07-12T02:33:35.117Z,98.09
2018-07-12T02:34:39.582Z,98.78
2018-07-12T02:35:44.048Z,99.43
2018-07-12T02:36:48.498Z,99.99
2018-07-12T02:37:52.949Z,99.77
2018-07-12T02:38:57.417Z,99.39
2018-07-12T02:40:02.284Z,99.38
2018-07-12T02:41:07.280Z,98.99
2018-07-12T02:42:11.704Z,97.42
2018-07-12T02:43:16.205Z,96.15
2018-07-12T02:44:20.694Z,95.42
2018-07-12T02:45:25.167Z,95.45
2018-07-12T02:46:29.638Z,96.52
2018-07-12T02:47:34.060Z,97.94
2018-07-12T02:48:38.522Z,98.17
2018-07-12T02:49:42.999Z,97.36
2018-07-12T02:50:47.444Z,96.03
2018-07-12T02:51:51.928Z,95.00
2018-07-12T02:52:56.413Z,94.78
2018-07-12T02:54:00.833Z,95.02
2018-07-12T02:55:05.295Z,96.10
2018-07-12T02:56:09.760Z,96.69
2018-07-12T02:57:14.281Z,96.84
2018-07-12T02:58:18.746Z,96.57
2018-07-12T02:59:23.242Z,96.01
2018-07-12T03:00:27.713Z,95.79
2018-07-12T03:01:32.269Z,96.37
2018-07-12T03:02:36.940Z,96.68
2018-07-12T03:03:41.407Z,97.90
2018-07-12T03:04:45.895Z,97.36
2018-07-12T03:05:50.364Z,96.65
2018-07-12T03:06:54.932Z,96.68
2018-07-12T03:07:59.387Z,96.85
2018-07-12T03:09:03.608Z,96.32
2018-07-12T03:10:08.036Z,96.21
2018-07-12T03:11:12.881Z,97.11
2018-07-12T03:12:17.956Z,96.78
2018-07-12T03:13:22.437Z,96.41
2018-07-12T03:14:26.884Z,97.46
2018-07-12T03:15:31.366Z,98.22
2018-07-12T03:16:35.846Z,97.80
2018-07-12T03:17:40.286Z,97.89
2018-07-12T03:18:44.724Z,97.11
2018-07-12T03:19:49.176Z,96.64
2018-07-12T03:20:53.603Z,96.38
2018-07-12T03:21:58.081Z,95.87
2018-07-12T03:23:02.537Z,95.91
2018-07-12T03:24:06.964Z,95.75
2018-07-12T03:25:11.380Z,95.30
2018-07-12T03:26:15.870Z,94.74
2018-07-12T03:27:20.337Z,94.11
2018-07-12T03:28:24.815Z,94.77
2018-07-12T03:29:29.281Z,95.19
2018-07-12T03:30:33.720Z,95.47
2018-07-12T03:31:38.164Z,94.43
2018-07-12T03:32:42.636Z,93.48
2018-07-12T03:33:47.079Z,93.07
2018-07-12T03:34:51.574Z,92.87
2018-07-12T03:35:56.008Z,93.51
2018-07-12T03:37:00.524Z,93.39
2018-07-12T03:38:05.018Z,93.39
2018-07-12T03:39:09.447Z,93.32
2018-07-12T03:40:13.887Z,93.95
2018-07-12T03:41:18.380Z,93.50
2018-07-12T03:42:23.368Z,93.64
2018-07-12T03:43:27.933Z,93.79
2018-07-12T03:44:32.376Z,94.72
2018-07-12T03:45:37.619Z,94.99
2018-07-12T03:46:42.256Z,95.11
2018-07-12T03:47:47.135Z,94.65
2018-07-12T03:48:52.089Z,94.66
2018-07-12T03:49:57.031Z,95.14
2018-07-12T03:51:01.735Z,94.38
2018-07-12T03:52:06.766Z,93.75
2018-07-12T03:53:11.808Z,93.25
2018-07-12T03:54:16.644Z,93.27
2018-07-12T03:55:21.684Z,93.34
2018-07-12T03:56:26.718Z,93.94
2018-07-12T03:57:32.036Z,93.10
2018-07-12T03:58:36.973Z,92.94
2018-07-12T03:59:41.989Z,93.19
2018-07-12T04:00:47.067Z,93.80
2018-07-12T04:01:52.043Z,94.20
2018-07-12T04:02:57.066Z,94.37
2018-07-12T04:04:02.055Z,94.17
2018-07-12T04:05:07.152Z,94.20
2018-07-12T04:06:12.089Z,94.35
2018-07-12T04:07:17.085Z,94.57
2018-07-12T04:08:22.103Z,93.87
2018-07-12T04:09:27.116Z,93.42
2018-07-12T04:10:32.354Z,93.30
2018-07-12T04:11:37.461Z,93.55
2018-07-12T04:12:42.515Z,94.16
2018-07-12T04:13:47.662Z,94.44
2018-07-12T04:14:52.749Z,94.61
2018-07-12T04:15:57.880Z,94.77
2018-07-12T04:17:03.018Z,95.60
2018-07-12T04:18:07.927Z,94.78
2018-07-12T04:19:13.225Z,95.34
2018-07-12T04:20:18.910Z,95.26
2018-07-12T04:21:23.901Z,94.21
2018-07-12T04:22:29.454Z,94.33
2018-07-12T04:23:34.568Z,94.46
2018-07-12T04:24:39.770Z,94.51
2018-07-12T04:25:44.703Z,93.59
2018-07-12T04:26:49.939Z,93.60
2018-07-12T04:27:55.357Z,94.29
2018-07-12T04:29:01.074Z,94.06
2018-07-12T04:30:06.413Z,93.68
2018-07-12T04:31:11.417Z,93.82
2018-07-12T04:32:16.651Z,94.20
2018-07-12T04:33:21.591Z,94.28
2018-07-12T04:34:26.650Z,94.60
2018-07-12T04:35:31.818Z,95.15
2018-07-12T04:36:36.741Z,95.45
2018-07-12T04:37:41.535Z,95.89
2018-07-12T04:38:46.182Z,95.95
2018-07-12T04:39:50.649Z,95.41
2018-07-12T04:40:55.122Z,94.71
2018-07-12T04:41:59.564Z,93.98
2018-07-12T04:43:04.067Z,93.75
2018-07-12T04:44:08.584Z,93.90
2018-07-12T04:45:13.079Z,94.41
2018-07-12T04:46:17.561Z,95.10
2018-07-12T04:47:22.076Z,94.83
2018-07-12T04:48:26.586Z,95.67
2018-07-12T04:49:31.065Z,95.77
2018-07-12T04:50:35.506Z,95.06
2018-07-12T04:51:39.984Z,95.27
2018-07-12T04:52:44.501Z,94.84
2018-07-12T04:53:48.988Z,94.78
2018-07-12T04:54:53.496Z,95.11
2018-07-12T04:55:57.956Z,94.75
2018-07-12T04:57:02.452Z,94.31
2018-07-12T04:58:06.950Z,95.12
2018-07-12T04:59:11.676Z,94.87
2018-07-12T05:00:16.626Z,95.36
2018-07-12T05:01:21.184Z,95.10
2018-07-12T05:02:25.705Z,94.77
2018-07-12T05:03:30.217Z,94.47
2018-07-12T05:04:34.688Z,94.37
2018-07-12T05:05:39.186Z,95.27
2018-07-12T05:06:43.789Z,95.03
2018-07-12T05:07:48.279Z,94.53
2018-07-12T05:08:52.747Z,94.30
2018-07-12T05:09:57.244Z,93.71
2018-07-12T05:11:01.789Z,93.76
2018-07-12T05:12:06.296Z,94.37
2018-07-12T05:13:10.773Z,94.23
2018-07-12T05:14:15.278Z,94.22
2018-07-12T05:15:19.772Z,94.06
2018-07-12T05:16:24.302Z,94.15
2018-07-12T05:17:28.785Z,94.11
2018-07-12T05:18:33.280Z,94.79
2018-07-12T05:19:37.772Z,95.02
2018-07-12T05:20:42.325Z,94.94
2018-07-12T05:21:46.805Z,94.80
2018-07-12T05:22:51.281Z,94.89
2018-07-12T05:23:55.774Z,94.64
2018-07-12T05:25:00.233Z,94.34
2018-07-12T05:26:04.944Z,94.62
2018-07-12T05:27:09.530Z,94.40
2018-07-12T05:28:14.045Z,94.54
2018-07-12T05:29:18.606Z,94.40
2018-07-12T05:30:23.061Z,94.70
2018-07-12T05:31:28.304Z,94.61
2018-07-12T05:32:32.784Z,94.52
2018-07-12T05:33:37.299Z,94.45
2018-07-12T05:34:41.830Z,94.37
2018-07-12T05:35:47.549Z,94.11
2018-07-12T05:36:52.753Z,93.92
2018-07-12T05:37:58.496Z,94.21
2018-07-12T05:39:04.083Z,94.24
2018-07-12T05:40:10.606Z,94.49
2018-07-12T05:41:17.856Z,94.34
2018-07-12T05:42:23.579Z,94.24
2018-07-12T05:43:29.300Z,93.83
2018-07-12T05:44:35.007Z,94.00
2018-07-12T05:45:40.699Z,94.93
2018-07-12T05:46:46.554Z,95.15
2018-07-12T05:47:52.389Z,95.16
2018-07-12T05:48:58.661Z,95.65
2018-07-12T05:50:04.941Z,95.23
2018-07-12T05:51:10.885Z,94.80
2018-07-12T05:52:17.144Z,95.31
2018-07-12T05:53:23.444Z,95.02
2018-07-12T05:54:29.417Z,94.81
2018-07-12T05:55:35.704Z,94.20
2018-07-12T05:56:41.961Z,93.92
2018-07-12T05:57:48.252Z,93.89
2018-07-12T05:58:54.573Z,93.46
2018-07-12T06:00:00.582Z,93.64
2018-07-12T06:01:05.924Z,94.83
2018-07-12T06:02:15.265Z,94.87
2018-07-12T06:03:20.933Z,95.73
2018-07-12T06:04:26.929Z,95.50
2018-07-12T06:05:32.954Z,95.24
2018-07-12T06:06:39.160Z,94.59
2018-07-12T06:07:46.232Z,94.47
2018-07-12T06:08:52.582Z,94.81
2018-07-12T06:09:58.834Z,95.83
2018-07-12T06:11:05.109Z,95.68
2018-07-12T06:12:11.109Z,95.76
2018-07-12T06:13:17.382Z,96.06
2018-07-12T06:14:23.861Z,97.05
2018-07-12T06:15:30.113Z,98.01
2018-07-12T06:16:36.097Z,98.53
2018-07-12T06:17:42.156Z,98.45
2018-07-12T06:18:48.492Z,99.45
2018-07-12T06:19:54.942Z,99.98
2018-07-12T06:21:01.200Z,99.52
2018-07-12T06:22:07.456Z,99.53
2018-07-12T06:23:13.730Z,98.96
2018-07-12T06:24:20.059Z,99.02
2018-07-12T06:25:26.333Z,99.18
2018-07-12T06:26:32.576Z,100.00
2018-07-12T06:27:38.860Z,100.00
2018-07-12T06:28:45.161Z,100.00
2018-07-12T06:29:51.462Z,99.89
2018-07-12T06:30:57.925Z,100.00
2018-07-12T06:32:04.158Z,99.08
2018-07-12T06:33:10.176Z,99.00
2018-07-12T06:34:16.465Z,99.60
2018-07-12T06:35:22.925Z,99.45
2018-07-12T06:36:29.208Z,99.62
2018-07-12T06:37:35.440Z,100.00
2018-07-12T06:38:41.729Z,100.00
2018-07-12T06:39:47.688Z,100.00
2018-07-12T06:40:53.924Z,100.00
2018-07-12T06:41:59.906Z,100.00
2018-07-12T06:43:06.203Z,100.00
2018-07-12T06:44:12.976Z,100.00
2018-07-12T06:45:19.258Z,100.00
2018-07-12T06:46:25.265Z,100.00
2018-07-12T06:47:31.534Z,100.00
2018-07-12T06:48:37.799Z,100.00
2018-07-12T06:49:44.102Z,100.00
2018-07-12T06:50:50.377Z,100.00
2018-07-12T06:51:56.291Z,100.00
2018-07-12T06:53:02.560Z,100.00
2018-07-12T06:54:08.498Z,100.00
2018-07-12T06:55:14.505Z,100.00
2018-07-12T06:56:20.817Z,100.00
2018-07-12T06:57:27.174Z,100.00
2018-07-12T06:58:33.461Z,100.00
2018-07-12T06:59:40.377Z,100.00
2018-07-12T07:00:46.644Z,100.00
2018-07-12T07:01:52.920Z,100.00
2018-07-12T07:02:59.236Z,100.00
2018-07-12T07:04:05.217Z,100.00
2018-07-12T07:05:11.481Z,100.00
2018-07-12T07:06:17.811Z,100.00
2018-07-12T07:07:24.095Z,100.00
2018-07-12T07:08:30.359Z,100.00
2018-07-12T07:09:36.368Z,100.00
2018-07-12T07:10:42.643Z,100.00
2018-07-12T07:11:48.929Z,100.00
2018-07-12T07:12:54.838Z,100.00
2018-07-12T07:14:00.807Z,100.00
2018-07-12T07:15:07.129Z,100.00
2018-07-12T07:16:13.105Z,100.00
2018-07-12T07:17:19.401Z,100.00
2018-07-12T07:18:25.656Z,100.00
2018-07-12T07:19:31.970Z,100.00
2018-07-12T07:20:38.269Z,100.00
2018-07-12T07:21:44.511Z,100.00
2018-07-12T07:22:50.507Z,100.00
2018-07-12T07:23:56.518Z,100.00
2018-07-12T07:25:02.877Z,100.00
2018-07-12T07:26:08.522Z,100.00
2018-07-12T07:27:14.785Z,100.00
2018-07-12T07:28:21.080Z,100.00
2018-07-12T07:29:27.378Z,100.00
2018-07-12T07:30:33.680Z,100.00
2018-07-12T07:31:39.981Z,100.00
2018-07-12T07:32:46.248Z,100.00
2018-07-12T07:33:52.553Z,100.00
2018-07-12T07:34:58.482Z,100.00
2018-07-12T07:36:05.647Z,100.00
2018-07-12T07:37:11.966Z,100.00
2018-07-12T07:38:18.246Z,100.00
2018-07-12T07:39:24.579Z,100.00
2018-07-12T07:40:30.873Z,100.00
2018-07-12T07:41:37.160Z,100.00
2018-07-12T07:42:43.429Z,100.00
2018-07-12T07:43:49.737Z,100.00
2018-07-12T07:44:56.044Z,100.00
2018-07-12T07:46:02.039Z,100.00
2018-07-12T07:47:08.361Z,100.00
2018-07-12T07:48:14.705Z,100.00
2018-07-12T07:49:21.032Z,100.00
2018-07-12T07:50:27.513Z,100.00
2018-07-12T07:51:33.775Z,100.00
2018-07-12T07:52:40.922Z,100.00
2018-07-12T07:53:47.231Z,100.00
2018-07-12T07:54:53.530Z,100.00
2018-07-12T07:55:59.771Z,100.00
2018-07-12T07:57:05.885Z,100.00
2018-07-12T07:58:12.345Z,100.00
2018-07-12T07:59:18.649Z,100.00
2018-07-12T08:00:24.928Z,100.00
2018-07-12T08:01:30.923Z,100.00
2018-07-12T08:02:37.163Z,100.00
2018-07-12T08:03:43.540Z,100.00
2018-07-12T08:04:49.809Z,100.00
2018-07-12T08:05:55.555Z,100.00
2018-07-12T08:07:01.915Z,100.00
2018-07-12T08:08:08.280Z,100.00
2018-07-12T08:09:14.549Z,100.00
2018-07-12T08:10:20.593Z,100.00
2018-07-12T08:11:26.828Z,100.00
2018-07-12T08:12:32.824Z,100.00
2018-07-12T08:13:38.444Z,100.00
2018-07-12T08:14:44.743Z,100.00
2018-07-12T08:15:51.032Z,100.00
2018-07-12T08:16:57.298Z,100.00
2018-07-12T08:18:03.624Z,100.00
2018-07-12T08:19:09.595Z,100.00
2018-07-12T08:20:15.912Z,100.00
2018-07-12T08:21:22.688Z,100.00
2018-07-12T08:22:28.928Z,100.00
2018-07-12T08:23:35.047Z,100.00
2018-07-12T08:24:41.239Z,100.00
2018-07-12T08:25:46.904Z,100.00
2018-07-12T08:26:52.915Z,100.00
2018-07-12T08:27:59.529Z,100.00
2018-07-12T08:29:05.968Z,100.00
2018-07-12T08:30:12.269Z,100.00
2018-07-12T08:31:18.385Z,100.00
2018-07-12T08:32:24.525Z,100.00
2018-07-12T08:33:30.866Z,100.00
2018-07-12T08:34:37.053Z,100.00
2018-07-12T08:35:43.385Z,100.00
2018-07-12T08:36:49.326Z,100.00
2018-07-12T08:37:55.563Z,100.00
2018-07-12T08:39:01.824Z,100.00
2018-07-12T08:40:08.536Z,100.00
2018-07-12T08:41:14.528Z,100.00
2018-07-12T08:42:20.527Z,100.00
2018-07-12T08:43:27.012Z,100.00
2018-07-12T08:44:33.038Z,100.00
2018-07-12T08:45:39.331Z,100.00
2018-07-12T08:46:45.616Z,100.00
2018-07-12T08:47:51.636Z,100.00
2018-07-12T08:48:57.888Z,100.00
2018-07-12T08:50:03.835Z,100.00
2018-07-12T08:51:10.097Z,100.00
2018-07-12T08:52:16.346Z,100.00
2018-07-12T08:53:22.602Z,100.00
2018-07-12T08:54:28.241Z,100.00
2018-07-12T08:55:34.512Z,100.00
2018-07-12T08:56:40.814Z,100.00
2018-07-12T08:57:47.089Z,100.00
2018-07-12T08:58:53.328Z,100.00
2018-07-12T08:59:59.615Z,100.00
2018-07-12T09:01:05.987Z,100.00
2018-07-12T09:02:12.283Z,100.00
2018-07-12T09:03:18.560Z,100.00
2018-07-12T09:04:25.830Z,100.00
2018-07-12T09:05:32.627Z,100.00
2018-07-12T09:06:38.933Z,100.00
2018-07-12T09:07:45.210Z,100.00
2018-07-12T09:08:51.493Z,100.00
2018-07-12T09:09:57.828Z,100.00
2018-07-12T09:11:04.154Z,100.00
2018-07-12T09:12:10.433Z,100.00
2018-07-12T09:13:16.681Z,100.00
2018-07-12T09:14:22.984Z,100.00
2018-07-12T09:15:29.254Z,100.00
2018-07-12T09:16:35.265Z,100.00
2018-07-12T09:17:41.548Z,100.00
2018-07-12T09:18:47.847Z,100.00
2018-07-12T09:19:54.557Z,100.00
2018-07-12T09:21:01.613Z,100.00
2018-07-12T09:22:07.938Z,100.00
2018-07-12T09:23:14.220Z,100.00
2018-07-12T09:24:20.489Z,100.00
2018-07-12T09:25:26.737Z,100.00
2018-07-12T09:26:33.281Z,100.00
2018-07-12T09:27:39.541Z,100.00
2018-07-12T09:28:45.574Z,100.00
2018-07-12T09:29:51.859Z,100.00
2018-07-12T09:30:58.140Z,100.00
2018-07-12T09:32:04.446Z,100.00
2018-07-12T09:33:10.708Z,100.00
2018-07-12T09:34:17.023Z,100.00
2018-07-12T09:35:23.341Z,100.00
2018-07-12T09:36:29.648Z,100.00
2018-07-12T09:37:35.960Z,100.00
2018-07-12T09:38:41.863Z,100.00
2018-07-12T09:39:48.188Z,100.00
2018-07-12T09:40:54.656Z,100.00
2018-07-12T09:42:00.545Z,100.00
2018-07-12T09:43:06.569Z,100.00
2018-07-12T09:44:12.860Z,100.00
2018-07-12T09:45:19.163Z,100.00
2018-07-12T09:46:25.472Z,100.00
2018-07-12T09:47:31.772Z,100.00
2018-07-12T09:48:38.268Z,99.68
2018-07-12T09:49:44.539Z,99.54
2018-07-12T09:50:50.518Z,97.85
2018-07-12T09:51:56.517Z,97.86
2018-07-12T09:53:02.098Z,98.09
2018-07-12T09:54:08.098Z,98.69
2018-07-12T09:55:13.772Z,98.24
2018-07-12T09:56:21.187Z,98.49
2018-07-12T09:57:38.657Z,98.16
2018-07-12T09:58:44.323Z,94.74
2018-07-12T09:59:50.644Z,95.56
2018-07-12T10:00:56.690Z,94.87
2018-07-12T10:03:34.587Z,94.66
2018-07-12T10:04:40.662Z,95.78
2018-07-12T10:05:46.722Z,95.86
2018-07-12T10:06:52.761Z,94.97
2018-07-12T10:07:58.803Z,89.72
2018-07-12T10:09:04.159Z,92.47
2018-07-12T10:10:10.179Z,94.35
2018-07-12T10:11:15.922Z,94.23
2018-07-12T10:12:21.993Z,92.29
2018-07-12T10:13:28.052Z,92.92
2018-07-12T10:14:34.128Z,92.15
2018-07-12T10:15:40.155Z,90.47
2018-07-12T10:16:46.191Z,90.63
2018-07-12T10:17:51.973Z,91.08
2018-07-12T10:18:58.276Z,91.29
2018-07-12T10:20:03.957Z,90.35
2018-07-12T10:21:10.228Z,90.32
2018-07-12T10:22:17.145Z,89.47
2018-07-12T10:23:24.208Z,88.72
2018-07-12T10:24:30.477Z,88.20
2018-07-12T10:25:36.765Z,88.10
2018-07-12T10:26:43.073Z,87.70
2018-07-12T10:27:49.368Z,89.45
2018-07-12T10:28:55.658Z,89.04
2018-07-12T10:30:01.960Z,89.35
2018-07-12T10:31:08.253Z,87.88
2018-07-12T10:32:14.596Z,86.73
2018-07-12T10:33:20.891Z,83.86
2018-07-12T10:34:27.340Z,83.28
2018-07-12T10:35:33.454Z,84.03
2018-07-12T10:36:39.777Z,82.12
2018-07-12T10:37:46.053Z,83.53
2018-07-12T10:38:52.513Z,83.17
2018-07-12T10:39:58.816Z,81.43
2018-07-12T10:41:05.077Z,82.20
2018-07-12T10:42:11.370Z,82.00
2018-07-12T10:43:17.629Z,81.20
2018-07-12T10:44:23.917Z,80.00
2018-07-12T10:45:30.187Z,80.60
2018-07-12T10:46:36.215Z,80.84
2018-07-12T10:47:42.484Z,79.49
2018-07-12T10:48:48.783Z,80.25
2018-07-12T10:49:55.075Z,78.68
2018-07-12T10:51:01.359Z,78.87
2018-07-12T10:52:07.095Z,78.75
2018-07-12T10:53:13.420Z,79.31
2018-07-12T10:54:19.684Z,79.49
2018-07-12T10:55:25.936Z,81.19
2018-07-12T10:56:32.206Z,81.29
2018-07-12T10:57:39.631Z,80.94
2018-07-12T10:58:45.971Z,81.49
2018-07-12T10:59:52.212Z,80.61
2018-07-12T11:00:58.512Z,82.40
2018-07-12T11:02:06.109Z,80.16
2018-07-12T11:03:12.396Z,79.92
2018-07-12T11:04:18.690Z,80.10
2018-07-12T11:05:24.938Z,78.47
2018-07-12T11:06:31.262Z,78.38
2018-07-12T11:07:38.297Z,77.58
2018-07-12T11:08:44.577Z,77.94
2018-07-12T11:09:50.849Z,78.41
2018-07-12T11:10:57.103Z,78.77
2018-07-12T11:12:03.416Z,79.36
2018-07-12T11:13:08.994Z,80.03
2018-07-12T11:14:15.320Z,79.95
2018-07-12T11:15:22.336Z,80.82
2018-07-12T11:16:28.584Z,79.48
2018-07-12T11:17:34.880Z,78.23
2018-07-12T11:18:41.150Z,77.46
2018-07-12T11:19:47.032Z,78.16
2018-07-12T11:20:53.251Z,77.82
2018-07-12T11:21:59.241Z,77.31
2018-07-12T11:23:05.201Z,77.48
2018-07-12T11:24:11.432Z,78.64
2018-07-12T11:25:17.726Z,77.50
2018-07-12T11:26:23.732Z,77.19
2018-07-12T11:27:30.030Z,77.08
2018-07-12T11:28:36.281Z,77.32
2018-07-12T11:29:44.942Z,76.32
2018-07-12T11:30:51.892Z,77.18
2018-07-12T11:31:58.175Z,78.07
2018-07-12T11:33:03.768Z,77.20
2018-07-12T11:34:09.841Z,77.49
2018-07-12T11:35:16.168Z,77.29
2018-07-12T11:36:22.415Z,76.81
2018-07-12T11:37:28.881Z,74.54
2018-07-12T11:38:34.842Z,73.57
2018-07-12T11:39:41.116Z,75.79
2018-07-12T11:40:47.344Z,73.58
2018-07-12T11:41:53.582Z,72.51
2018-07-12T11:42:59.848Z,71.66
2018-07-12T11:44:06.171Z,70.40
2018-07-12T11:45:12.437Z,69.62
2018-07-12T11:46:18.680Z,70.08
2018-07-12T11:47:24.955Z,71.47
2018-07-12T11:48:31.230Z,70.05
2018-07-12T11:49:37.459Z,70.28
2018-07-12T11:50:43.924Z,69.56
2018-07-12T11:51:50.438Z,68.62
2018-07-12T11:52:56.776Z,69.62
2018-07-12T11:54:02.997Z,69.90
2018-07-12T11:55:09.309Z,68.85
2018-07-12T11:56:15.571Z,67.63
2018-07-12T11:57:21.832Z,67.55
2018-07-12T11:58:27.731Z,67.13
2018-07-12T11:59:33.976Z,66.99
2018-07-12T12:00:40.266Z,67.24
2018-07-12T12:01:46.667Z,68.05
2018-07-12T12:02:53.129Z,66.98
2018-07-12T12:03:59.445Z,67.13
2018-07-12T12:05:06.230Z,68.03
2018-07-12T12:06:14.695Z,68.29
2018-07-12T12:07:22.328Z,65.13
2018-07-12T12:08:29.195Z,64.57
2018-07-12T12:09:35.875Z,64.34
2018-07-12T12:10:42.668Z,64.38
2018-07-12T12:11:49.662Z,65.92
2018-07-12T12:12:55.846Z,64.23
2018-07-12T12:14:02.522Z,63.94
2018-07-12T12:15:09.087Z,62.51
2018-07-12T12:16:15.659Z,63.24
2018-07-12T12:17:21.890Z,62.05
2018-07-12T12:18:28.479Z,61.73
2018-07-12T12:19:35.285Z,59.44
2018-07-12T12:20:42.063Z,60.23
2018-07-12T12:21:49.056Z,59.00
2018-07-12T12:22:56.581Z,60.11
2018-07-12T12:24:03.356Z,59.09
2018-07-12T12:25:10.311Z,59.14
2018-07-12T12:26:18.210Z,57.27
2018-07-12T12:27:25.331Z,56.68
2018-07-12T12:28:33.426Z,56.15
2018-07-12T12:29:41.283Z,55.51
2018-07-12T12:30:49.456Z,56.13
2018-07-12T12:31:56.312Z,55.69
2018-07-12T12:33:03.092Z,55.63
2018-07-12T12:34:09.772Z,54.83
2018-07-12T12:35:16.744Z,55.76
2018-07-12T12:36:23.203Z,56.62
2018-07-12T12:37:29.864Z,54.98
2018-07-12T12:38:36.384Z,54.63
2018-07-12T12:39:42.583Z,54.22
2018-07-12T12:40:49.089Z,53.48
2018-07-12T12:41:55.568Z,52.58
2018-07-12T12:43:02.771Z,53.57
2018-07-12T12:44:10.487Z,52.47
2018-07-12T12:45:17.058Z,52.45
2018-07-12T12:46:23.395Z,51.79
2018-07-12T12:47:29.643Z,52.99
2018-07-12T12:48:36.035Z,53.45
2018-07-12T12:49:42.768Z,53.82
2018-07-12T12:50:49.077Z,53.91
2018-07-12T12:51:55.232Z,54.52
2018-07-12T12:53:01.604Z,53.71
2018-07-12T12:54:07.262Z,54.19
2018-07-12T12:55:13.204Z,52.91
2018-07-12T12:56:19.175Z,52.13
2018-07-12T12:57:25.112Z,53.28
2018-07-12T12:58:31.387Z,53.08
2018-07-12T12:59:37.324Z,53.53
2018-07-12T13:00:43.255Z,53.38
2018-07-12T13:01:49.197Z,53.81
2018-07-12T13:02:55.173Z,53.84
2018-07-12T13:04:01.108Z,53.77
2018-07-12T13:05:07.068Z,53.31
2018-07-12T13:06:13.279Z,52.94
2018-07-12T13:07:19.233Z,52.09
2018-07-12T13:08:25.211Z,53.58
2018-07-12T13:09:32.423Z,52.26
2018-07-12T13:10:37.993Z,52.66
2018-07-12T13:11:43.644Z,53.13
2018-07-12T13:12:49.583Z,52.84
2018-07-12T13:13:55.846Z,53.19
2018-07-12T13:15:01.848Z,53.40
2018-07-12T13:16:07.508Z,53.40
2018-07-12T13:17:12.760Z,53.01
2018-07-12T13:18:18.462Z,53.45
2018-07-12T13:19:24.446Z,52.91
2018-07-12T13:20:30.116Z,51.54
2018-07-12T13:21:35.770Z,52.81
2018-07-12T13:22:41.439Z,51.86
2018-07-12T13:23:47.411Z,52.44
2018-07-12T13:24:53.388Z,52.25
2018-07-12T13:25:58.697Z,52.47
2018-07-12T13:27:04.289Z,52.76
2018-07-12T13:28:10.708Z,52.33
2018-07-12T13:29:17.748Z,52.24
2018-07-12T13:30:25.090Z,53.35
2018-07-12T13:31:31.633Z,53.86
2018-07-12T13:32:37.809Z,53.99
2018-07-12T13:33:44.049Z,53.54
2018-07-12T13:34:50.753Z,53.60
2018-07-12T13:35:56.840Z,53.46
2018-07-12T13:37:03.373Z,54.67
2018-07-12T13:38:09.694Z,53.86
2018-07-12T13:39:15.830Z,53.68
2018-07-12T13:40:22.865Z,53.38
2018-07-12T13:41:28.928Z,53.48
2018-07-12T13:42:36.203Z,53.22
2018-07-12T13:43:43.703Z,53.74
2018-07-12T13:44:50.314Z,54.08
2018-07-12T13:45:57.882Z,54.48
2018-07-12T13:47:03.873Z,54.76
2018-07-12T13:48:09.773Z,55.53
2018-07-12T13:49:16.225Z,55.61
2018-07-12T13:50:22.348Z,55.39
2018-07-12T13:51:28.599Z,54.96
2018-07-12T13:52:34.983Z,56.22
2018-07-12T13:53:41.888Z,54.93
2018-07-12T13:54:48.651Z,54.31
2018-07-12T13:55:54.714Z,54.20
2018-07-12T13:57:00.852Z,53.64
2018-07-12T13:58:07.407Z,53.66
2018-07-12T13:59:13.915Z,52.88
2018-07-12T14:00:19.946Z,54.40